createdAt,value
2023-02-07T00:01:32.749Z,17.17
2023-02-07T00:04:01.859Z,16.73
2023-02-07T00:06:32.179Z,18.83
2023-02-07T00:09:01.600Z,17.23
2023-02-07T00:11:29.844Z,18.17
2023-02-07T00:14:00.470Z,17.47
2023-02-07T00:16:29.327Z,17.03
2023-02-07T00:19:03.853Z,18.33
2023-02-07T00:21:32.692Z,16.93
2023-02-07T00:24:01.478Z,17.33
2023-02-07T00:26:30.742Z,16.87
2023-02-07T00:28:59.671Z,18.40
2023-02-07T00:31:30.099Z,18.60
2023-02-07T00:34:05.014Z,21.00
2023-02-07T00:36:35.297Z,21.50
2023-02-07T00:39:07.005Z,19.97
2023-02-07T00:41:37.538Z,19.63
2023-02-07T00:44:06.828Z,20.40
2023-02-07T00:46:35.678Z,18.47
2023-02-07T00:49:07.216Z,18.43
2023-02-07T00:51:35.895Z,16.50
2023-02-07T00:54:04.561Z,16.07
2023-02-07T00:56:35.902Z,16.80
2023-02-07T00:59:04.172Z,16.47
2023-02-07T01:01:32.519Z,16.17
2023-02-07T01:04:00.970Z,16.50
2023-02-07T01:06:33.860Z,15.97
2023-02-07T01:09:03.360Z,15.23
2023-02-07T01:11:31.946Z,15.90
2023-02-07T01:14:01.778Z,16.17
2023-02-07T01:16:33.186Z,15.33
2023-02-07T01:19:04.837Z,14.63
2023-02-07T01:21:34.614Z,15.77
2023-02-07T01:24:03.183Z,14.83
2023-02-07T01:26:31.659Z,16.37
2023-02-07T01:29:00.221Z,15.20
2023-02-07T01:31:28.784Z,16.13
2023-02-07T01:33:58.727Z,14.60
2023-02-07T01:36:29.356Z,14.67
2023-02-07T01:38:59.350Z,16.17
2023-02-07T01:41:28.960Z,15.57
2023-02-07T01:44:03.631Z,16.83
2023-02-07T01:46:33.888Z,15.10
2023-02-07T01:49:06.345Z,15.50
2023-02-07T01:51:36.311Z,15.47
2023-02-07T01:54:10.465Z,15.80
2023-02-07T01:56:42.837Z,16.60
2023-02-07T01:59:13.094Z,16.00
2023-02-07T02:01:41.732Z,15.27
2023-02-07T02:04:10.095Z,16.33
2023-02-07T02:06:42.799Z,14.47
2023-02-07T02:09:15.535Z,15.23
2023-02-07T02:12:21.596Z,14.70
2023-02-07T02:15:07.181Z,14.93
2023-02-07T02:17:47.997Z,14.57
2023-02-07T02:20:51.058Z,16.10
2023-02-07T02:23:30.266Z,16.33
2023-02-07T02:26:43.203Z,15.47
2023-02-07T02:29:52.910Z,16.10
2023-02-07T02:32:49.620Z,15.47
2023-02-07T02:35:23.185Z,15.50
2023-02-07T02:38:04.275Z,16.50
2023-02-07T02:40:39.872Z,14.47
2023-02-07T02:43:15.341Z,15.23
2023-02-07T02:45:46.856Z,15.53
2023-02-07T02:48:18.760Z,14.37
2023-02-07T02:50:49.305Z,15.30
2023-02-07T02:53:18.263Z,16.33
2023-02-07T02:56:13.465Z,18.13
2023-02-07T02:58:57.135Z,17.63
2023-02-07T03:01:36.156Z,15.57
2023-02-07T03:04:30.529Z,15.63
2023-02-07T03:07:12.179Z,16.50
2023-02-07T03:09:49.672Z,18.87
2023-02-07T03:12:24.169Z,19.03
2023-02-07T03:15:00.291Z,18.33
2023-02-07T03:17:33.871Z,19.23
2023-02-07T03:20:10.722Z,19.57
2023-02-07T03:22:39.841Z,18.83
2023-02-07T03:25:11.353Z,18.47
2023-02-07T03:27:41.731Z,21.60
2023-02-07T03:30:14.535Z,20.97
2023-02-07T03:32:46.850Z,20.50
2023-02-07T03:35:22.073Z,21.13
2023-02-07T03:37:56.313Z,19.00
2023-02-07T03:40:27.623Z,20.83
2023-02-07T03:43:01.290Z,20.43
2023-02-07T03:45:29.961Z,20.97
2023-02-07T03:47:58.241Z,21.13
2023-02-07T03:50:28.569Z,21.67
2023-02-07T03:52:56.870Z,20.90
2023-02-07T03:55:25.235Z,21.37
2023-02-07T03:57:53.493Z,19.57
2023-02-07T04:00:21.986Z,17.97
2023-02-07T04:02:50.412Z,17.60
2023-02-07T04:05:18.907Z,18.47
2023-02-07T04:07:48.770Z,18.97
2023-02-07T04:10:17.226Z,18.93
2023-02-07T04:12:45.572Z,17.83
2023-02-07T04:15:14.765Z,18.00
2023-02-07T04:17:42.991Z,19.10
2023-02-07T04:20:12.587Z,18.40
2023-02-07T04:22:40.939Z,18.60
2023-02-07T04:25:10.810Z,18.87
2023-02-07T04:27:39.218Z,19.50
2023-02-07T04:30:08.508Z,19.33
2023-02-07T04:32:36.920Z,17.53
2023-02-07T04:35:05.345Z,17.33
2023-02-07T04:37:33.772Z,17.20
2023-02-07T04:40:02.372Z,18.57
2023-02-07T04:42:32.281Z,20.40
2023-02-07T04:45:01.038Z,19.67
2023-02-07T04:47:29.628Z,18.70
2023-02-07T04:49:58.233Z,19.43
2023-02-07T04:52:26.788Z,19.43
2023-02-07T04:54:55.383Z,18.13
2023-02-07T04:57:24.082Z,21.17
2023-02-07T04:59:54.082Z,21.27
2023-02-07T05:02:22.604Z,21.37
2023-02-07T05:04:51.096Z,21.53
2023-02-07T05:07:19.860Z,21.30
2023-02-07T05:09:47.923Z,22.53
2023-02-07T05:12:15.944Z,22.17
2023-02-07T05:14:43.989Z,23.57
2023-02-07T05:17:13.387Z,21.83
2023-02-07T05:19:41.606Z,20.73
2023-02-07T05:22:09.660Z,21.17
2023-02-07T05:24:37.715Z,20.23
2023-02-07T05:27:05.755Z,20.10
2023-02-07T05:29:33.681Z,21.33
2023-02-07T05:32:19.179Z,21.00
2023-02-07T05:34:48.555Z,20.23
2023-02-07T05:37:16.580Z,22.60
2023-02-07T05:39:44.619Z,21.50
2023-02-07T05:42:12.611Z,22.80
2023-02-07T05:44:40.757Z,24.27
2023-02-07T05:47:08.807Z,23.97
2023-02-07T05:49:37.434Z,24.13
2023-02-07T05:52:07.040Z,23.50
2023-02-07T05:54:35.072Z,23.50
2023-02-07T05:57:03.069Z,22.63
2023-02-07T05:59:31.133Z,20.97
2023-02-07T06:01:59.149Z,20.27
2023-02-07T06:04:27.610Z,19.60
2023-02-07T06:06:55.634Z,18.97
2023-02-07T06:09:25.012Z,18.67
2023-02-07T06:11:53.247Z,17.33
2023-02-07T06:14:21.352Z,17.37
2023-02-07T06:16:49.372Z,16.87
2023-02-07T06:19:17.548Z,17.77
2023-02-07T06:21:46.941Z,17.40
2023-02-07T06:24:15.726Z,16.20
2023-02-07T06:26:46.773Z,16.70
2023-02-07T06:29:15.376Z,18.87
2023-02-07T06:31:43.504Z,16.53
2023-02-07T06:34:11.667Z,16.80
2023-02-07T06:36:39.809Z,16.80
2023-02-07T06:39:07.872Z,17.43
2023-02-07T06:41:35.902Z,16.20
2023-02-07T06:44:05.479Z,16.23
2023-02-07T06:46:33.744Z,15.83
2023-02-07T06:49:01.815Z,16.33
2023-02-07T06:51:29.963Z,14.33
2023-02-07T06:53:58.111Z,17.13
2023-02-07T06:56:26.217Z,16.70
2023-02-07T06:58:54.282Z,16.10
2023-02-07T07:01:23.816Z,16.93
2023-02-07T07:03:51.909Z,18.60
2023-02-07T07:06:20.043Z,18.37
2023-02-07T07:08:48.184Z,20.80
2023-02-07T07:11:16.346Z,20.63
2023-02-07T07:13:44.365Z,21.63
2023-02-07T07:16:12.667Z,24.00
2023-02-07T07:18:42.175Z,25.57
2023-02-07T07:21:10.820Z,27.87
2023-02-07T07:23:39.171Z,28.50
2023-02-07T07:26:07.317Z,25.77
2023-02-07T07:28:35.331Z,26.90
2023-02-07T07:31:05.183Z,27.40
2023-02-07T07:33:33.576Z,26.47
2023-02-07T07:36:04.986Z,23.60
2023-02-07T07:38:33.771Z,21.80
2023-02-07T07:41:02.170Z,20.70
2023-02-07T07:43:30.286Z,19.43
2023-02-07T07:46:01.222Z,19.73
2023-02-07T07:48:29.578Z,18.70
2023-02-07T07:50:57.918Z,19.87
2023-02-07T07:53:27.389Z,19.67
2023-02-07T07:55:57.406Z,18.83
2023-02-07T07:58:27.172Z,18.93
2023-02-07T08:00:56.015Z,18.67
2023-02-07T08:03:24.403Z,18.10
2023-02-07T08:05:52.582Z,17.83
2023-02-07T08:08:20.889Z,17.10
2023-02-07T08:10:50.482Z,19.57
2023-02-07T08:13:19.916Z,17.13
2023-02-07T08:15:48.476Z,18.17
2023-02-07T08:18:16.549Z,17.97
2023-02-07T08:20:44.643Z,17.00
2023-02-07T08:23:12.835Z,16.97
2023-02-07T08:25:42.342Z,17.67
2023-02-07T08:28:11.934Z,18.50
2023-02-07T08:30:40.865Z,17.50
2023-02-07T08:33:09.187Z,16.57
2023-02-07T08:35:38.208Z,18.03
2023-02-07T08:38:06.335Z,16.43
2023-02-07T08:40:34.644Z,17.13
2023-02-07T08:43:05.253Z,16.63
2023-02-07T08:45:35.082Z,16.03
2023-02-07T08:48:03.279Z,20.40
2023-02-07T08:50:31.480Z,27.07
2023-02-07T08:52:59.754Z,24.57
2023-02-07T08:55:28.058Z,20.07
2023-02-07T08:57:56.238Z,19.63
2023-02-07T09:00:24.734Z,16.93
2023-02-07T09:02:54.311Z,17.77
2023-02-07T09:05:22.551Z,17.07
2023-02-07T09:07:50.659Z,20.83
2023-02-07T09:10:18.936Z,18.33
2023-02-07T09:12:47.038Z,18.27
2023-02-07T09:15:15.158Z,18.10
2023-02-07T09:17:43.657Z,16.80
2023-02-07T09:20:13.906Z,16.63
2023-02-07T09:22:55.801Z,16.00
2023-02-07T09:25:23.903Z,16.00
2023-02-07T09:27:52.429Z,17.03
2023-02-07T09:30:20.676Z,15.67
2023-02-07T09:32:48.838Z,16.17
2023-02-07T09:35:18.542Z,15.67
2023-02-07T09:37:49.833Z,15.60
2023-02-07T09:40:20.458Z,17.00
2023-02-07T09:42:56.886Z,16.47
2023-02-07T09:45:30.269Z,14.47
2023-02-07T09:48:04.277Z,15.90
2023-02-07T09:50:38.388Z,14.53
2023-02-07T09:53:12.359Z,15.83
2023-02-07T09:55:47.464Z,14.27
2023-02-07T09:58:19.514Z,13.17
2023-02-07T10:00:54.411Z,13.00
2023-02-07T10:03:24.378Z,12.47
2023-02-07T10:06:09.256Z,14.37
2023-02-07T10:08:45.756Z,13.23
2023-02-07T10:11:20.575Z,13.63
2023-02-07T10:14:02.569Z,12.80
2023-02-07T10:16:46.748Z,13.03
2023-02-07T10:19:22.871Z,13.43
2023-02-07T10:22:03.966Z,13.90
2023-02-07T10:24:53.110Z,13.90
2023-02-07T10:27:30.739Z,14.43
2023-02-07T10:30:05.489Z,14.40
2023-02-07T10:32:36.990Z,12.73
2023-02-07T10:35:15.945Z,13.83
2023-02-07T10:37:46.813Z,13.57
2023-02-07T10:40:20.220Z,13.23
2023-02-07T10:42:55.873Z,12.20
2023-02-07T10:45:24.091Z,12.33
2023-02-07T10:47:52.211Z,42.27
2023-02-07T10:50:29.655Z,26.30
2023-02-07T10:53:00.721Z,21.97
2023-02-07T10:55:47.308Z,18.33
2023-02-07T10:58:23.210Z,13.90
2023-02-07T11:00:53.987Z,13.50
2023-02-07T11:03:23.264Z,13.07
2023-02-07T11:05:57.391Z,13.10
2023-02-07T11:08:29.407Z,13.63
2023-02-07T11:10:59.661Z,12.60
2023-02-07T11:13:29.987Z,12.80
2023-02-07T11:16:04.110Z,12.80
2023-02-07T11:18:57.217Z,13.20
2023-02-07T11:21:31.556Z,12.13
2023-02-07T11:24:05.712Z,11.53
2023-02-07T11:26:35.512Z,12.93
2023-02-07T11:29:08.029Z,12.37
2023-02-07T11:31:38.670Z,13.37
2023-02-07T11:34:22.684Z,12.30
2023-02-07T11:36:50.818Z,12.77
2023-02-07T11:39:23.801Z,11.93
2023-02-07T11:41:59.499Z,12.73
2023-02-07T11:44:29.862Z,12.10
2023-02-07T11:47:04.071Z,12.53
2023-02-07T11:49:43.436Z,20.80
2023-02-07T11:52:12.069Z,12.43
2023-02-07T11:54:44.059Z,11.97
2023-02-07T11:57:14.403Z,11.20
2023-02-07T11:59:50.477Z,11.40
2023-02-07T12:02:22.065Z,10.63
2023-02-07T12:04:50.886Z,10.77
2023-02-07T12:07:25.503Z,10.10
2023-02-07T12:09:57.191Z,11.53
2023-02-07T12:12:34.923Z,10.93
2023-02-07T12:15:08.101Z,11.50
2023-02-07T12:17:42.417Z,11.33
2023-02-07T12:20:21.563Z,11.03
2023-02-07T12:23:04.839Z,9.40
2023-02-07T12:25:48.073Z,9.97
2023-02-07T12:28:21.853Z,11.03
2023-02-07T12:30:55.816Z,12.23
2023-02-07T12:33:34.297Z,10.30
2023-02-07T12:36:10.551Z,12.03
2023-02-07T12:38:43.348Z,10.27
2023-02-07T12:41:18.058Z,10.40
2023-02-07T12:43:55.364Z,9.97
2023-02-07T12:46:32.887Z,10.67
2023-02-07T12:49:17.780Z,10.57
2023-02-07T12:51:57.805Z,10.50
2023-02-07T12:54:38.804Z,10.20
2023-02-07T12:57:15.086Z,10.20
2023-02-07T12:59:52.764Z,10.63
2023-02-07T13:02:34.317Z,9.97
2023-02-07T13:05:18.290Z,9.50
2023-02-07T13:07:56.497Z,11.10
2023-02-07T13:10:36.455Z,9.83
2023-02-07T13:13:15.183Z,10.63
2023-02-07T13:15:49.518Z,10.47
2023-02-07T13:18:23.516Z,9.67
2023-02-07T13:21:10.284Z,9.97
2023-02-07T13:23:43.498Z,9.83
2023-02-07T13:26:16.742Z,10.63
2023-02-07T13:28:49.916Z,11.10
2023-02-07T13:31:20.900Z,9.37
2023-02-07T13:33:51.077Z,8.80
2023-02-07T13:36:25.958Z,9.23
2023-02-07T13:39:12.818Z,8.53
2023-02-07T13:41:50.380Z,8.57
2023-02-07T13:44:26.470Z,8.80
2023-02-07T13:47:30.608Z,9.13
2023-02-07T13:50:05.521Z,8.63
2023-02-07T13:52:40.504Z,8.00
2023-02-07T13:55:19.815Z,8.13
2023-02-07T13:58:05.645Z,8.00
2023-02-07T14:00:39.877Z,8.17
2023-02-07T14:03:19.915Z,7.87
2023-02-07T14:05:48.500Z,8.00
2023-02-07T14:08:25.475Z,8.37
2023-02-07T14:10:54.173Z,8.57
2023-02-07T14:13:25.613Z,9.37
2023-02-07T14:16:02.487Z,10.20
2023-02-07T14:18:48.130Z,8.90
2023-02-07T14:21:39.751Z,9.33
2023-02-07T14:24:33.512Z,8.67
2023-02-07T14:27:06.708Z,9.10
2023-02-07T14:30:16.138Z,9.50
2023-02-07T14:33:02.765Z,8.93
2023-02-07T14:35:34.653Z,8.90
2023-02-07T14:38:13.664Z,8.03
2023-02-07T14:41:09.455Z,8.37
2023-02-07T14:43:59.807Z,8.77
2023-02-07T14:46:38.248Z,16.87
2023-02-07T14:49:15.220Z,14.90
2023-02-07T14:51:46.916Z,10.93
2023-02-07T14:54:20.397Z,10.27
2023-02-07T14:56:54.433Z,9.57
2023-02-07T14:59:29.470Z,9.63
2023-02-07T15:01:57.839Z,9.50
2023-02-07T15:04:27.401Z,9.00
2023-02-07T15:06:55.588Z,9.00
2023-02-07T15:09:26.746Z,9.53
2023-02-07T15:12:10.613Z,9.03
2023-02-07T15:14:44.457Z,9.13
2023-02-07T15:17:12.618Z,8.50
2023-02-07T15:19:43.523Z,9.17
2023-02-07T15:22:26.194Z,9.03
2023-02-07T15:24:58.013Z,8.97
2023-02-07T15:27:28.611Z,9.10
2023-02-07T15:29:58.493Z,8.93
2023-02-07T15:32:30.239Z,9.30
2023-02-07T15:35:00.879Z,8.57
2023-02-07T15:37:29.253Z,8.87
2023-02-07T15:39:58.759Z,9.20
2023-02-07T15:42:27.376Z,8.23
2023-02-07T15:44:57.680Z,8.30
2023-02-07T15:47:37.464Z,8.67
2023-02-07T15:50:18.735Z,8.50
2023-02-07T15:52:51.656Z,8.20
2023-02-07T15:55:24.584Z,8.57
2023-02-07T15:57:53.590Z,8.00
2023-02-07T16:00:25.386Z,8.13
2023-02-07T16:02:59.905Z,8.90
2023-02-07T16:05:31.683Z,8.17
2023-02-07T16:08:02.181Z,8.27
2023-02-07T16:10:37.032Z,13.30
2023-02-07T16:13:12.745Z,11.67
2023-02-07T16:15:54.497Z,10.67
2023-02-07T16:18:39.832Z,10.33
2023-02-07T16:21:15.059Z,9.80
2023-02-07T16:23:43.668Z,12.47
2023-02-07T16:26:12.096Z,18.67
2023-02-07T16:28:40.563Z,15.03
2023-02-07T16:31:08.852Z,13.07
2023-02-07T16:33:39.833Z,12.10
2023-02-07T16:36:14.514Z,10.67
2023-02-07T16:38:42.920Z,10.37
2023-02-07T16:41:24.080Z,10.70
2023-02-07T16:43:52.463Z,10.20
2023-02-07T16:46:20.594Z,9.70
2023-02-07T16:48:48.772Z,11.00
2023-02-07T16:51:18.419Z,11.10
2023-02-07T16:53:46.683Z,10.10
2023-02-07T16:56:22.421Z,10.33
2023-02-07T16:58:50.713Z,10.37
2023-02-07T17:01:21.388Z,10.30
2023-02-07T17:03:49.929Z,10.60
2023-02-07T17:06:20.918Z,10.43
2023-02-07T17:08:49.895Z,11.37
2023-02-07T17:11:24.741Z,10.93
2023-02-07T17:13:53.802Z,9.93
2023-02-07T17:16:22.410Z,10.60
2023-02-07T17:18:50.854Z,11.33
2023-02-07T17:21:22.415Z,11.77
2023-02-07T17:23:50.806Z,11.03
2023-02-07T17:26:24.427Z,11.37
2023-02-07T17:28:53.137Z,12.30
2023-02-07T17:31:21.683Z,13.20
2023-02-07T17:33:51.514Z,11.10
2023-02-07T17:36:21.681Z,10.30
2023-02-07T17:38:49.861Z,11.63
2023-02-07T17:41:20.087Z,10.27
2023-02-07T17:43:48.384Z,10.63
2023-02-07T17:46:18.943Z,10.30
2023-02-07T17:48:49.177Z,11.30
2023-02-07T17:51:17.789Z,10.07
2023-02-07T17:53:48.299Z,10.87
2023-02-07T17:56:22.267Z,11.63
2023-02-07T17:58:50.682Z,10.63
2023-02-07T18:01:19.492Z,11.40
2023-02-07T18:03:47.909Z,11.03
2023-02-07T18:06:16.996Z,12.37
2023-02-07T18:08:47.370Z,10.83
2023-02-07T18:11:16.437Z,10.97
2023-02-07T18:13:46.474Z,12.73
2023-02-07T18:16:16.138Z,11.17
2023-02-07T18:18:44.507Z,12.90
2023-02-07T18:21:13.639Z,13.37
2023-02-07T18:23:44.044Z,12.90
2023-02-07T18:26:15.576Z,14.43
2023-02-07T18:28:44.234Z,13.20
2023-02-07T18:31:13.212Z,13.00
2023-02-07T18:33:41.455Z,13.40
2023-02-07T18:36:10.557Z,12.50
2023-02-07T18:38:39.230Z,12.47
2023-02-07T18:41:10.382Z,12.37
2023-02-07T18:43:40.402Z,12.90
2023-02-07T18:46:09.566Z,12.30
2023-02-07T18:48:37.907Z,12.07
2023-02-07T18:51:07.572Z,12.47
2023-02-07T18:53:35.773Z,12.77
2023-02-07T18:56:05.215Z,11.93
2023-02-07T18:58:34.020Z,13.37
2023-02-07T19:01:10.043Z,13.23
2023-02-07T19:03:38.944Z,13.73
2023-02-07T19:06:08.535Z,13.27
2023-02-07T19:08:37.275Z,13.63
2023-02-07T19:11:06.978Z,14.30
2023-02-07T19:13:36.501Z,15.13
2023-02-07T19:16:07.741Z,14.73
2023-02-07T19:18:36.295Z,16.37
2023-02-07T19:21:05.572Z,17.17
2023-02-07T19:23:34.134Z,15.60
2023-02-07T19:26:02.779Z,15.07
2023-02-07T19:28:31.546Z,15.13
2023-02-07T19:30:59.653Z,15.43
2023-02-07T19:33:29.152Z,14.63
2023-02-07T19:35:58.233Z,15.33
2023-02-07T19:38:26.283Z,14.40
2023-02-07T19:40:57.670Z,13.43
2023-02-07T19:43:25.695Z,14.60
2023-02-07T19:45:54.036Z,13.67
2023-02-07T19:48:22.793Z,13.80
2023-02-07T19:51:00.430Z,14.73
2023-02-07T19:53:30.003Z,15.87
2023-02-07T19:56:02.415Z,15.40
2023-02-07T19:58:31.628Z,13.37
2023-02-07T20:01:00.456Z,14.53
2023-02-07T20:03:28.958Z,13.07
2023-02-07T20:05:59.976Z,13.10
2023-02-07T20:08:33.781Z,13.83
2023-02-07T20:11:05.212Z,15.30
2023-02-07T20:13:34.840Z,14.63
2023-02-07T20:16:05.650Z,13.90
2023-02-07T20:18:34.448Z,14.67
2023-02-07T20:21:11.438Z,15.50
2023-02-07T20:23:42.089Z,14.80
2023-02-07T20:26:12.873Z,14.57
2023-02-07T20:28:41.782Z,14.97
2023-02-07T20:31:11.065Z,13.83
2023-02-07T20:33:41.342Z,14.90
2023-02-07T20:36:10.846Z,15.37
2023-02-07T20:38:40.840Z,14.47
2023-02-07T20:41:10.884Z,15.13
2023-02-07T20:43:39.971Z,13.50
2023-02-07T20:46:10.755Z,14.97
2023-02-07T20:48:39.178Z,15.00
2023-02-07T20:51:10.338Z,17.80
2023-02-07T20:53:41.999Z,18.50
2023-02-07T20:56:12.233Z,18.47
2023-02-07T20:58:40.471Z,18.07
2023-02-07T21:01:10.510Z,16.77
2023-02-07T21:03:39.584Z,18.83
2023-02-07T21:06:08.910Z,18.23
2023-02-07T21:08:37.992Z,17.97
2023-02-07T21:11:09.057Z,17.40
2023-02-07T21:13:38.334Z,16.90
2023-02-07T21:16:07.870Z,15.73
2023-02-07T21:18:37.617Z,17.67
2023-02-07T21:21:09.874Z,17.57
2023-02-07T21:23:38.583Z,17.73
2023-02-07T21:26:09.556Z,18.40
2023-02-07T21:28:38.041Z,18.70
2023-02-07T21:31:07.754Z,17.00
2023-02-07T21:33:35.913Z,17.37
2023-02-07T21:36:09.245Z,16.83
2023-02-07T21:38:39.295Z,17.17
2023-02-07T21:41:10.188Z,16.57
2023-02-07T21:43:40.293Z,17.63
2023-02-07T21:46:10.799Z,16.83
2023-02-07T21:48:40.126Z,17.73
2023-02-07T21:51:10.329Z,15.43
2023-02-07T21:53:39.532Z,17.07
2023-02-07T21:56:12.251Z,16.97
2023-02-07T21:58:40.681Z,19.10
2023-02-07T22:01:10.248Z,19.30
2023-02-07T22:03:39.175Z,18.53
2023-02-07T22:06:08.435Z,21.07
2023-02-07T22:08:37.510Z,19.00
2023-02-07T22:11:06.639Z,20.70
2023-02-07T22:13:38.023Z,19.77
2023-02-07T22:16:08.604Z,20.13
2023-02-07T22:18:37.089Z,18.97
2023-02-07T22:21:05.730Z,19.30
2023-02-07T22:23:34.260Z,18.40
2023-02-07T22:26:02.547Z,18.30
2023-02-07T22:28:30.780Z,18.60
2023-02-07T22:31:00.671Z,18.93
2023-02-07T22:33:28.982Z,18.93
2023-02-07T22:35:57.019Z,18.17
2023-02-07T22:38:25.226Z,19.97
2023-02-07T22:40:53.337Z,20.57
2023-02-07T22:43:21.495Z,19.80
2023-02-07T22:45:49.625Z,19.10
2023-02-07T22:48:19.100Z,19.33
2023-02-07T22:50:47.385Z,18.57
2023-02-07T22:53:15.781Z,20.20
2023-02-07T22:55:43.815Z,19.43
2023-02-07T22:58:14.604Z,19.17
2023-02-07T23:00:42.764Z,18.77
2023-02-07T23:03:11.128Z,19.27
2023-02-07T23:05:40.962Z,19.47
2023-02-07T23:08:09.052Z,16.90
2023-02-07T23:10:37.114Z,18.37
2023-02-07T23:13:05.991Z,18.40
2023-02-07T23:15:34.518Z,19.40
2023-02-07T23:18:02.675Z,18.23
2023-02-07T23:20:30.887Z,18.07
2023-02-07T23:23:00.337Z,18.50
2023-02-07T23:25:28.423Z,19.53
2023-02-07T23:27:56.543Z,19.70
2023-02-07T23:30:24.851Z,18.83
2023-02-07T23:32:53.000Z,26.30
2023-02-07T23:35:21.046Z,25.30
2023-02-07T23:37:49.071Z,22.63
2023-02-07T23:40:19.024Z,21.30
2023-02-07T23:42:47.126Z,20.10
2023-02-07T23:45:15.181Z,19.03
2023-02-07T23:47:43.175Z,18.70
2023-02-07T23:50:11.297Z,17.50
2023-02-07T23:52:39.559Z,18.83
2023-02-07T23:55:08.858Z,19.13
2023-02-07T23:57:38.803Z,18.30
